Time;durP1;ratioP1;P1;durP2;ratioP2;P2;SDS_P1;SDS_P2;PMS_P1;PMS_P2;Temp;Humidity;BMP_temperature;BMP_pressure;BME280_temperature;BME280_humidity;BME280_pressure;Samples;Min_cycle;Max_cycle;Signal;HPM_P1;HPM_P2
2023/04/25 00:00:35;;;;;;;6.75;1.60;;;;;;;;;;5040615;28;20042;-44
2023/04/25 00:03:00;;;;;;;5.47;1.67;;;;;;;;;;5041035;28;20112;-42
2023/04/25 00:05:27;;;;;;;4.00;2.03;;;;;;;;;;5039548;28;20025;-44
2023/04/25 00:07:52;;;;;;;4.25;1.67;;;;;;;;;;5043162;28;20100;-43
2023/04/25 00:10:19;;;;;;;3.35;1.60;;;;;;;;;;5044199;28;20107;-42
2023/04/25 00:12:45;;;;;;;3.47;1.38;;;;;;;;;;5045565;28;20482;-45
2023/04/25 00:15:11;;;;;;;3.67;1.70;;;;;;;;;;5044205;28;20068;-44
2023/04/25 00:17:38;;;;;;;3.35;1.42;;;;;;;;;;5047937;28;20381;-42
2023/04/25 00:20:09;;;;;;;3.38;1.83;;;;;;;;;;5046571;28;20036;-42
2023/04/25 00:22:36;;;;;;;6.45;1.70;;;;;;;;;;5045941;28;20060;-43
2023/04/25 00:25:03;;;;;;;4.13;1.73;;;;;;;;;;5046930;28;20033;-41
2023/04/25 00:27:28;;;;;;;3.00;1.60;;;;;;;;;;5052450;28;20029;-41
2023/04/25 00:29:54;;;;;;;4.60;2.00;;;;;;;;;;5045117;28;20083;-41
2023/04/25 00:32:19;;;;;;;4.00;1.45;;;;;;;;;;5045225;28;20405;-42
2023/04/25 00:34:44;;;;;;;4.78;1.63;;;;;;;;;;5046625;28;20048;-42
2023/04/25 00:37:10;;;;;;;2.42;1.52;;;;;;;;;;5044449;28;20083;-42
2023/04/25 00:39:35;;;;;;;2.85;1.58;;;;;;;;;;5048531;28;20338;-41
2023/04/25 00:42:02;;;;;;;3.53;1.60;;;;;;;;;;5046819;28;20450;-43
2023/04/25 00:44:29;;;;;;;3.72;1.58;;;;;;;;;;5046167;28;20078;-41
2023/04/25 00:46:55;;;;;;;4.00;1.40;;;;;;;;;;5047114;28;20099;-43
2023/04/25 00:49:20;;;;;;;2.65;1.83;;;;;;;;;;5045371;28;20021;-43
2023/04/25 00:51:46;;;;;;;2.90;1.38;;;;;;;;;;5043180;28;20029;-42
2023/04/25 00:54:12;;;;;;;2.00;1.52;;;;;;;;;;5045679;28;20033;-41
2023/04/25 00:56:38;;;;;;;3.58;1.50;;;;;;;;;;5044351;28;20357;-41
2023/04/25 00:59:03;;;;;;;2.40;1.55;;;;;;;;;;5043563;28;20032;-42
2023/04/25 01:01:31;;;;;;;1.98;1.30;;;;;;;;;;5042891;28;20073;-42
2023/04/25 01:03:58;;;;;;;3.50;1.83;;;;;;;;;;5048247;28;20068;-42
2023/04/25 01:06:23;;;;;;;3.72;1.50;;;;;;;;;;5043881;28;20037;-41
2023/04/25 01:08:49;;;;;;;2.88;1.40;;;;;;;;;;5050677;28;20079;-42
2023/04/25 01:11:14;;;;;;;1.23;0.93;;;;;;;;;;5050534;28;20159;-41
2023/04/25 01:13:40;;;;;;;7.25;1.50;;;;;;;;;;5044081;28;20040;-41
2023/04/25 01:16:05;;;;;;;1.73;1.17;;;;;;;;;;5045442;28;20052;-41
2023/04/25 01:18:31;;;;;;;4.63;1.27;;;;;;;;;;5045594;28;20025;-42
2023/04/25 01:21:06;;;;;;;1.58;1.25;;;;;;;;;;5043926;28;20626;-43
2023/04/25 01:23:33;;;;;;;2.20;1.48;;;;;;;;;;5047231;28;20082;-43
2023/04/25 01:25:58;;;;;;;3.55;1.30;;;;;;;;;;5047529;28;20041;-43
2023/04/25 01:28:24;;;;;;;2.17;1.50;;;;;;;;;;5044204;28;20380;-42
2023/04/25 01:30:50;;;;;;;3.80;1.65;;;;;;;;;;5046099;28;20036;-44
2023/04/25 01:33:16;;;;;;;5.93;1.85;;;;;;;;;;5046635;28;20032;-41
2023/04/25 01:35:41;;;;;;;6.85;2.00;;;;;;;;;;5044028;28;20043;-40
2023/04/25 01:38:07;;;;;;;4.40;1.60;;;;;;;;;;5046648;28;20537;-47
2023/04/25 01:40:34;;;;;;;1.98;1.60;;;;;;;;;;5048002;28;20440;-41
2023/04/25 01:42:59;;;;;;;2.90;1.30;;;;;;;;;;5045836;28;20488;-42
2023/04/25 01:45:25;;;;;;;3.10;1.50;;;;;;;;;;5045321;28;20033;-44
2023/04/25 01:47:50;;;;;;;3.22;1.63;;;;;;;;;;5049418;28;20025;-42
2023/04/25 01:50:20;;;;;;;4.35;1.50;;;;;;;;;;5044300;28;20494;-41
2023/04/25 01:52:45;;;;;;;3.35;1.80;;;;;;;;;;5047194;28;20025;-41
2023/04/25 01:55:11;;;;;;;3.42;1.50;;;;;;;;;;5045960;28;20432;-42
2023/04/25 01:57:37;;;;;;;3.28;1.30;;;;;;;;;;5042097;28;20029;-43
2023/04/25 02:00:06;;;;;;;2.97;1.75;;;;;;;;;;5045226;28;20032;-44
2023/04/25 02:02:31;;;;;;;2.35;1.88;;;;;;;;;;5043193;28;20041;-45
2023/04/25 02:04:57;;;;;;;3.63;1.60;;;;;;;;;;5046048;28;20108;-42
2023/04/25 02:07:22;;;;;;;2.83;1.30;;;;;;;;;;5043183;28;20712;-43
2023/04/25 02:09:47;;;;;;;3.05;1.67;;;;;;;;;;5045021;28;20074;-42
2023/04/25 02:12:13;;;;;;;2.15;1.52;;;;;;;;;;5046713;28;20037;-44
2023/04/25 02:14:38;;;;;;;1.40;1.30;;;;;;;;;;5046762;28;20178;-42
2023/04/25 02:17:05;;;;;;;3.28;1.70;;;;;;;;;;5045184;28;20118;-42
2023/04/25 02:19:31;;;;;;;6.25;2.08;;;;;;;;;;5044040;28;20024;-44
2023/04/25 02:21:56;;;;;;;3.50;1.50;;;;;;;;;;5043727;28;20036;-43
2023/04/25 02:24:22;;;;;;;2.95;1.50;;;;;;;;;;5045979;28;20040;-41
2023/04/25 02:26:49;;;;;;;3.33;1.42;;;;;;;;;;5044824;28;20040;-42
2023/04/25 02:29:15;;;;;;;3.00;1.70;;;;;;;;;;5046313;28;20020;-41
2023/04/25 02:31:40;;;;;;;2.67;1.80;;;;;;;;;;5044463;28;20041;-41
2023/04/25 02:34:05;;;;;;;3.20;1.77;;;;;;;;;;5043944;28;20031;-44
2023/04/25 02:36:33;;;;;;;2.88;1.60;;;;;;;;;;5046112;28;20477;-41
2023/04/25 02:39:00;;;;;;;4.13;1.83;;;;;;;;;;5048730;28;20033;-41
2023/04/25 02:41:25;;;;;;;1.80;1.70;;;;;;;;;;5044688;28;20043;-41
2023/04/25 02:43:51;;;;;;;1.98;1.45;;;;;;;;;;5044379;28;20448;-42
2023/04/25 02:46:16;;;;;;;1.92;1.60;;;;;;;;;;5041817;28;20055;-41
2023/04/25 02:48:41;;;;;;;2.83;1.58;;;;;;;;;;5041747;28;20458;-41
2023/04/25 02:51:07;;;;;;;4.18;1.55;;;;;;;;;;5044486;28;20041;-44
2023/04/25 02:53:32;;;;;;;4.10;1.58;;;;;;;;;;5043619;28;20060;-44
2023/04/25 02:55:59;;;;;;;2.08;1.70;;;;;;;;;;5040771;28;20040;-41
2023/04/25 02:58:24;;;;;;;2.03;1.60;;;;;;;;;;5046318;28;20033;-42
2023/04/25 03:00:50;;;;;;;2.00;1.77;;;;;;;;;;5043707;28;20087;-41
2023/04/25 03:03:17;;;;;;;8.20;1.90;;;;;;;;;;5040976;28;20080;-41
2023/04/25 03:05:43;;;;;;;3.33;1.75;;;;;;;;;;5043807;28;20408;-42
2023/04/25 03:08:09;;;;;;;2.55;1.75;;;;;;;;;;5042552;28;20063;-42
2023/04/25 03:10:34;;;;;;;5.30;1.70;;;;;;;;;;5044630;28;20576;-41
2023/04/25 03:13:00;;;;;;;3.92;1.92;;;;;;;;;;5045017;28;20542;-41
2023/04/25 03:15:25;;;;;;;4.22;1.48;;;;;;;;;;5044224;28;20036;-42
2023/04/25 03:17:51;;;;;;;3.42;1.70;;;;;;;;;;5045406;28;20029;-43
2023/04/25 03:20:16;;;;;;;1.98;1.45;;;;;;;;;;5045764;28;20031;-40
2023/04/25 03:22:42;;;;;;;2.67;1.48;;;;;;;;;;5042644;28;20036;-47
2023/04/25 03:25:07;;;;;;;2.15;1.60;;;;;;;;;;5042955;28;20029;-41
2023/04/25 03:27:33;;;;;;;8.15;1.73;;;;;;;;;;5044031;28;20041;-44
2023/04/25 03:29:58;;;;;;;1.88;1.70;;;;;;;;;;5043770;28;20040;-41
2023/04/25 03:32:24;;;;;;;3.85;2.08;;;;;;;;;;5040280;28;20678;-41
2023/04/25 03:34:49;;;;;;;2.85;1.60;;;;;;;;;;5048734;28;20033;-41
2023/04/25 03:37:14;;;;;;;3.25;1.40;;;;;;;;;;5042958;28;20045;-43
2023/04/25 03:39:40;;;;;;;3.90;1.50;;;;;;;;;;5042464;28;20045;-41
2023/04/25 03:42:05;;;;;;;3.15;1.92;;;;;;;;;;5045735;28;20040;-41
2023/04/25 03:44:30;;;;;;;6.05;1.73;;;;;;;;;;5043820;28;20131;-44
2023/04/25 03:46:56;;;;;;;2.30;1.70;;;;;;;;;;5043071;28;20037;-43
2023/04/25 03:49:21;;;;;;;5.63;2.13;;;;;;;;;;5043896;28;20451;-43
2023/04/25 03:51:47;;;;;;;3.08;1.70;;;;;;;;;;5044659;28;20037;-41
2023/04/25 03:54:12;;;;;;;1.77;1.67;;;;;;;;;;5042178;28;20570;-45
2023/04/25 03:56:37;;;;;;;3.20;1.60;;;;;;;;;;5038976;28;20059;-42
2023/04/25 03:59:03;;;;;;;2.05;1.80;;;;;;;;;;5041167;28;20024;-41
2023/04/25 04:01:28;;;;;;;2.65;1.55;;;;;;;;;;5047028;28;20046;-43
2023/04/25 04:03:53;;;;;;;2.00;1.60;;;;;;;;;;5043980;28;20021;-41
2023/04/25 04:06:20;;;;;;;3.30;1.55;;;;;;;;;;5040435;28;20041;-41
2023/04/25 04:08:46;;;;;;;3.15;1.85;;;;;;;;;;5041326;28;20037;-42
2023/04/25 04:11:11;;;;;;;1.95;1.60;;;;;;;;;;5039065;28;20041;-42
2023/04/25 04:13:36;;;;;;;1.92;1.50;;;;;;;;;;5047349;28;20087;-41
2023/04/25 04:16:04;;;;;;;2.92;2.08;;;;;;;;;;5039216;28;20049;-42
2023/04/25 04:18:29;;;;;;;1.83;1.70;;;;;;;;;;5043715;28;20430;-41
2023/04/25 04:20:54;;;;;;;4.57;1.88;;;;;;;;;;5042123;28;20042;-41
2023/04/25 04:23:20;;;;;;;2.25;2.05;;;;;;;;;;5043597;28;20037;-44
2023/04/25 04:25:46;;;;;;;2.70;1.95;;;;;;;;;;5042377;28;20075;-41
2023/04/25 04:28:13;;;;;;;3.15;1.70;;;;;;;;;;5042335;28;20397;-42
2023/04/25 04:30:39;;;;;;;3.17;2.00;;;;;;;;;;5043113;28;20056;-44
2023/04/25 04:33:04;;;;;;;2.20;2.00;;;;;;;;;;5041858;28;20053;-44
2023/04/25 04:35:30;;;;;;;4.68;1.92;;;;;;;;;;5042411;28;20086;-45
2023/04/25 04:37:56;;;;;;;3.17;1.90;;;;;;;;;;5039997;28;20114;-41
2023/04/25 04:40:21;;;;;;;1.73;1.52;;;;;;;;;;5042034;28;20709;-43
2023/04/25 04:42:47;;;;;;;1.60;1.50;;;;;;;;;;5042300;28;20131;-44
2023/04/25 04:45:14;;;;;;;2.35;1.58;;;;;;;;;;5040582;28;20036;-41
2023/04/25 04:47:39;;;;;;;5.00;1.88;;;;;;;;;;5042489;28;20083;-42
2023/04/25 04:50:09;;;;;;;4.05;2.10;;;;;;;;;;5039104;28;20056;-47
2023/04/25 04:52:38;;;;;;;7.93;1.70;;;;;;;;;;5045351;28;20041;-42
2023/04/25 04:55:05;;;;;;;3.30;1.80;;;;;;;;;;5041787;28;20029;-43
2023/04/25 04:57:30;;;;;;;2.88;1.90;;;;;;;;;;5041347;28;20537;-42
2023/04/25 04:59:56;;;;;;;2.80;2.13;;;;;;;;;;5042275;28;20116;-42
2023/04/25 05:02:22;;;;;;;2.58;1.83;;;;;;;;;;5045312;28;20565;-45
2023/04/25 05:04:47;;;;;;;7.28;4.18;;;;;;;;;;5045483;28;20029;-43
2023/04/25 05:07:13;;;;;;;5.57;1.73;;;;;;;;;;5043161;28;20433;-43
2023/04/25 05:09:39;;;;;;;1.70;1.60;;;;;;;;;;5048069;28;20029;-42
2023/04/25 05:12:05;;;;;;;3.95;1.83;;;;;;;;;;5040697;28;20073;-42
2023/04/25 05:14:31;;;;;;;2.95;1.85;;;;;;;;;;5044250;28;20087;-43
2023/04/25 05:16:56;;;;;;;5.28;1.77;;;;;;;;;;5044461;28;20048;-42
2023/04/25 05:19:21;;;;;;;2.13;1.50;;;;;;;;;;5045558;28;20556;-42
2023/04/25 05:21:47;;;;;;;1.98;1.35;;;;;;;;;;5046439;28;20029;-41
2023/04/25 05:24:12;;;;;;;2.95;1.95;;;;;;;;;;5045163;28;20126;-44
2023/04/25 05:26:38;;;;;;;4.03;1.48;;;;;;;;;;5046517;28;20037;-45
2023/04/25 05:29:03;;;;;;;2.95;1.50;;;;;;;;;;5047635;28;20033;-41
2023/04/25 05:31:28;;;;;;;1.45;1.35;;;;;;;;;;5044605;28;20646;-43
2023/04/25 05:33:54;;;;;;;3.95;1.42;;;;;;;;;;5043264;28;20021;-42
2023/04/25 05:36:19;;;;;;;2.15;1.42;;;;;;;;;;5040523;28;20557;-42
2023/04/25 05:38:45;;;;;;;3.22;1.55;;;;;;;;;;5042023;28;20071;-41
2023/04/25 05:41:10;;;;;;;1.67;1.58;;;;;;;;;;5045419;28;20052;-42
2023/04/25 05:43:36;;;;;;;4.55;1.40;;;;;;;;;;5039497;28;20108;-44
2023/04/25 05:46:01;;;;;;;5.60;1.50;;;;;;;;;;5036776;28;20378;-42
2023/04/25 05:48:27;;;;;;;3.90;1.45;;;;;;;;;;5045497;28;20111;-43
2023/04/25 05:50:52;;;;;;;4.05;1.80;;;;;;;;;;5043486;28;20128;-44
2023/04/25 05:53:19;;;;;;;5.80;4.43;;;;;;;;;;5040570;28;20030;-42
2023/04/25 05:55:44;;;;;;;4.10;2.10;;;;;;;;;;5041905;28;20045;-45
2023/04/25 05:58:10;;;;;;;3.55;1.70;;;;;;;;;;5042260;28;20033;-44
2023/04/25 06:00:35;;;;;;;3.85;1.58;;;;;;;;;;5042008;28;20041;-44
2023/04/25 06:03:01;;;;;;;3.75;1.70;;;;;;;;;;5038734;28;20115;-43
2023/04/25 06:05:26;;;;;;;7.28;1.63;;;;;;;;;;5043007;28;20053;-48
2023/04/25 06:07:51;;;;;;;4.25;1.58;;;;;;;;;;5029166;28;20028;-48
2023/04/25 06:10:17;;;;;;;4.07;1.80;;;;;;;;;;5043993;28;20094;-43
2023/04/25 06:12:42;;;;;;;5.85;1.80;;;;;;;;;;5043152;28;20040;-43
2023/04/25 06:15:08;;;;;;;4.78;1.80;;;;;;;;;;5046034;28;20551;-40
2023/04/25 06:17:33;;;;;;;7.43;1.98;;;;;;;;;;5044195;28;20043;-46
2023/04/25 06:19:59;;;;;;;1.77;1.27;;;;;;;;;;5042964;28;20025;-45
2023/04/25 06:22:24;;;;;;;4.65;1.50;;;;;;;;;;5044057;28;20371;-44
2023/04/25 06:24:49;;;;;;;3.38;1.52;;;;;;;;;;5037605;28;20037;-42
2023/04/25 06:27:15;;;;;;;7.13;1.60;;;;;;;;;;5044835;28;20123;-44
2023/04/25 06:29:40;;;;;;;2.55;1.42;;;;;;;;;;5039647;28;20033;-43
2023/04/25 06:32:06;;;;;;;3.97;1.60;;;;;;;;;;5040963;28;20044;-42
2023/04/25 06:34:31;;;;;;;5.88;1.63;;;;;;;;;;5044440;28;20028;-43
2023/04/25 06:36:56;;;;;;;5.03;1.50;;;;;;;;;;5042920;28;20037;-42
2023/04/25 06:39:23;;;;;;;4.05;1.83;;;;;;;;;;5046157;28;20083;-42
2023/04/25 06:41:49;;;;;;;5.32;1.30;;;;;;;;;;5040138;28;20037;-42
2023/04/25 06:44:15;;;;;;;5.95;1.88;;;;;;;;;;5047037;28;20028;-42
2023/04/25 06:46:40;;;;;;;2.08;1.33;;;;;;;;;;5043305;28;20397;-42
2023/04/25 06:49:06;;;;;;;1.40;1.30;;;;;;;;;;5041568;28;20033;-42
2023/04/25 06:51:31;;;;;;;6.22;1.63;;;;;;;;;;5038689;28;20033;-44
2023/04/25 06:53:57;;;;;;;7.90;1.63;;;;;;;;;;5043618;28;20032;-44
2023/04/25 06:56:23;;;;;;;2.25;1.30;;;;;;;;;;5042748;28;20041;-42
2023/04/25 06:58:49;;;;;;;2.92;1.48;;;;;;;;;;5041842;28;20037;-42
2023/04/25 07:01:14;;;;;;;2.00;1.35;;;;;;;;;;5043050;28;20033;-42
2023/04/25 07:03:40;;;;;;;3.35;1.50;;;;;;;;;;5043762;28;20119;-42
2023/04/25 07:06:05;;;;;;;5.22;2.08;;;;;;;;;;5046703;28;20041;-42
2023/04/25 07:08:31;;;;;;;3.00;1.60;;;;;;;;;;5042221;28;20025;-42
2023/04/25 07:10:56;;;;;;;3.45;1.30;;;;;;;;;;5043537;28;20604;-42
2023/04/25 07:13:21;;;;;;;3.92;1.45;;;;;;;;;;5042192;28;20025;-42
2023/04/25 07:15:48;;;;;;;3.88;1.30;;;;;;;;;;5042213;28;20116;-43
2023/04/25 07:18:13;;;;;;;9.27;1.50;;;;;;;;;;5045137;28;20041;-45
2023/04/25 07:20:38;;;;;;;3.75;1.42;;;;;;;;;;5042839;28;20051;-46
2023/04/25 07:23:04;;;;;;;6.93;1.38;;;;;;;;;;5040443;28;20088;-42
2023/04/25 07:25:30;;;;;;;3.40;1.33;;;;;;;;;;5038468;28;20576;-42
2023/04/25 07:27:56;;;;;;;2.78;1.10;;;;;;;;;;5031170;28;20412;-44
2023/04/25 07:30:21;;;;;;;4.50;1.15;;;;;;;;;;5032849;28;20029;-42
2023/04/25 07:32:47;;;;;;;1.92;1.30;;;;;;;;;;5035192;28;20055;-42
2023/04/25 07:35:12;;;;;;;4.05;1.30;;;;;;;;;;5033755;28;20488;-44
2023/04/25 07:37:38;;;;;;;2.40;1.23;;;;;;;;;;5039238;28;20036;-42
2023/04/25 07:40:04;;;;;;;2.70;1.48;;;;;;;;;;5043837;28;20037;-47
2023/04/25 07:42:30;;;;;;;4.70;1.30;;;;;;;;;;5040745;28;20124;-42
2023/04/25 07:44:55;;;;;;;2.42;1.67;;;;;;;;;;5042234;28;20108;-45
2023/04/25 07:47:21;;;;;;;1.45;1.20;;;;;;;;;;5043744;28;20071;-43
2023/04/25 07:49:46;;;;;;;2.10;1.48;;;;;;;;;;5042756;28;20049;-42
2023/04/25 07:52:12;;;;;;;6.55;1.73;;;;;;;;;;5042151;28;20516;-41
2023/04/25 07:54:37;;;;;;;3.65;2.00;;;;;;;;;;5041928;28;20037;-43
2023/04/25 07:57:03;;;;;;;1.83;1.27;;;;;;;;;;5043968;28;20055;-43
2023/04/25 07:59:28;;;;;;;1.10;1.00;;;;;;;;;;5039750;28;20041;-45
2023/04/25 08:01:54;;;;;;;4.72;1.02;;;;;;;;;;5040322;28;20144;-43
2023/04/25 08:04:19;;;;;;;1.65;1.00;;;;;;;;;;5042366;28;20025;-43
2023/04/25 08:06:45;;;;;;;1.38;0.73;;;;;;;;;;5042158;28;20151;-43
2023/04/25 08:09:10;;;;;;;9.50;0.95;;;;;;;;;;5042509;28;20545;-42
2023/04/25 08:11:36;;;;;;;4.15;1.00;;;;;;;;;;5041424;28;20033;-42
2023/04/25 08:14:02;;;;;;;1.70;0.95;;;;;;;;;;5037522;28;20136;-42
2023/04/25 08:16:28;;;;;;;4.00;1.02;;;;;;;;;;5042730;28;20512;-42
2023/04/25 08:18:53;;;;;;;8.02;1.13;;;;;;;;;;5042931;28;20044;-43
2023/04/25 08:21:19;;;;;;;4.63;1.00;;;;;;;;;;5040830;28;20044;-43
2023/04/25 08:23:44;;;;;;;5.25;1.30;;;;;;;;;;5040895;28;20033;-46
2023/04/25 08:26:10;;;;;;;1.67;1.00;;;;;;;;;;5040000;28;20152;-43
2023/04/25 08:28:35;;;;;;;1.52;1.05;;;;;;;;;;5047276;28;20060;-42
2023/04/25 08:31:00;;;;;;;2.40;0.80;;;;;;;;;;5040802;28;20091;-42
2023/04/25 08:33:26;;;;;;;2.13;1.23;;;;;;;;;;5043985;28;20025;-44
2023/04/25 08:35:51;;;;;;;6.80;0.93;;;;;;;;;;5043141;28;20025;-42
2023/04/25 08:38:18;;;;;;;2.67;1.17;;;;;;;;;;5045501;28;20033;-42
2023/04/25 08:40:44;;;;;;;1.23;1.02;;;;;;;;;;5044804;28;20435;-48
2023/04/25 08:43:14;;;;;;;1.85;1.40;;;;;;;;;;5046109;28;20500;-43
2023/04/25 08:45:41;;;;;;;1.45;1.02;;;;;;;;;;5046225;28;20406;-43
2023/04/25 08:48:13;;;;;;;3.13;1.20;;;;;;;;;;5040011;28;20029;-45
2023/04/25 08:50:52;;;;;;;2.30;1.20;;;;;;;;;;5043218;28;20506;-43
2023/04/25 08:53:22;;;;;;;5.53;1.50;;;;;;;;;;5047617;28;20376;-42
2023/04/25 08:55:49;;;;;;;6.65;1.30;;;;;;;;;;5046200;28;20037;-43
2023/04/25 08:58:15;;;;;;;2.53;1.45;;;;;;;;;;5044695;28;20025;-42
2023/04/25 09:00:40;;;;;;;3.60;1.73;;;;;;;;;;5046127;28;20473;-42
2023/04/25 09:03:06;;;;;;;1.98;1.40;;;;;;;;;;5045937;28;20423;-43
2023/04/25 09:05:33;;;;;;;7.15;1.50;;;;;;;;;;5039627;28;20098;-44
2023/04/25 09:07:58;;;;;;;3.88;2.22;;;;;;;;;;5043361;28;20150;-49
2023/04/25 09:10:23;;;;;;;3.15;1.90;;;;;;;;;;5043138;28;20033;-43
2023/04/25 09:13:14;;;;;;;10.73;2.03;;;;;;;;;;5045696;28;20025;-43
2023/04/25 09:15:55;;;;;;;5.07;1.50;;;;;;;;;;5038015;28;20037;-45
2023/04/25 09:18:30;;;;;;;8.90;1.88;;;;;;;;;;5042239;28;20033;-45
2023/04/25 09:21:04;;;;;;;7.25;1.85;;;;;;;;;;5045087;28;20094;-46
2023/04/25 09:23:30;;;;;;;5.43;1.70;;;;;;;;;;5045708;28;20064;-49
2023/04/25 09:25:55;;;;;;;6.35;1.67;;;;;;;;;;5044787;28;20064;-44
2023/04/25 09:28:28;;;;;;;2.67;1.98;;;;;;;;;;5045930;28;20028;-44
2023/04/25 09:30:57;;;;;;;2.50;1.63;;;;;;;;;;5044554;28;20103;-47
2023/04/25 09:33:31;;;;;;;3.28;1.77;;;;;;;;;;5045656;28;20140;-44
2023/04/25 09:36:03;;;;;;;5.03;1.70;;;;;;;;;;5042199;28;20494;-42
2023/04/25 09:38:30;;;;;;;1.80;1.70;;;;;;;;;;5043174;28;20079;-45
2023/04/25 09:40:56;;;;;;;6.10;1.52;;;;;;;;;;5038718;28;20037;-43
2023/04/25 09:43:23;;;;;;;3.97;1.60;;;;;;;;;;5040345;28;20055;-42
2023/04/25 09:45:51;;;;;;;5.00;1.90;;;;;;;;;;5042771;28;20148;-42
2023/04/25 09:48:24;;;;;;;2.35;1.60;;;;;;;;;;5042418;28;20028;-43
2023/04/25 09:51:15;;;;;;;2.38;1.67;;;;;;;;;;5044618;28;20497;-43
2023/04/25 09:53:46;;;;;;;12.13;2.10;;;;;;;;;;5044830;28;20041;-42
2023/04/25 09:56:12;;;;;;;3.95;1.80;;;;;;;;;;5037984;28;20038;-45
2023/04/25 09:58:40;;;;;;;2.08;1.65;;;;;;;;;;5042100;28;20025;-43
2023/04/25 10:01:08;;;;;;;8.88;1.70;;;;;;;;;;5042234;28;20044;-43
2023/04/25 10:03:36;;;;;;;8.00;1.73;;;;;;;;;;5043414;28;20473;-42
2023/04/25 10:06:06;;;;;;;1.50;1.13;;;;;;;;;;5040085;28;20056;-45
2023/04/25 10:08:36;;;;;;;15.77;1.55;;;;;;;;;;5040277;28;20222;-48
2023/04/25 10:11:05;;;;;;;5.05;1.50;;;;;;;;;;5043029;28;20112;-45
2023/04/25 10:13:31;;;;;;;5.60;1.63;;;;;;;;;;5042231;28;20397;-46
2023/04/25 10:16:02;;;;;;;3.17;1.60;;;;;;;;;;5041915;28;20482;-45
2023/04/25 10:18:29;;;;;;;3.05;1.25;;;;;;;;;;5043729;28;20583;-43
2023/04/25 10:20:57;;;;;;;2.88;1.65;;;;;;;;;;5038841;28;20056;-46
2023/04/25 10:23:23;;;;;;;3.95;1.98;;;;;;;;;;5021072;28;20025;-45
2023/04/25 10:25:51;;;;;;;4.63;1.65;;;;;;;;;;5027018;28;20106;-49
2023/04/25 10:28:16;;;;;;;7.07;1.60;;;;;;;;;;5032535;28;20025;-44
2023/04/25 10:31:06;;;;;;;6.20;1.80;;;;;;;;;;5032117;28;20045;-45
2023/04/25 10:33:36;;;;;;;1.40;1.30;;;;;;;;;;5028058;28;20033;-47
2023/04/25 10:36:24;;;;;;;2.17;1.65;;;;;;;;;;5028780;28;20037;-48
2023/04/25 10:38:51;;;;;;;2.45;1.38;;;;;;;;;;5031060;28;20120;-45
2023/04/25 10:41:21;;;;;;;1.83;1.55;;;;;;;;;;5038041;28;20080;-44
2023/04/25 10:43:47;;;;;;;5.63;1.73;;;;;;;;;;5045215;28;20017;-43
2023/04/25 10:46:24;;;;;;;4.05;1.50;;;;;;;;;;5043060;28;20393;-45
2023/04/25 10:48:53;;;;;;;2.67;1.55;;;;;;;;;;5041170;28;20028;-42
2023/04/25 10:51:26;;;;;;;2.30;1.42;;;;;;;;;;5043720;28;20059;-43
2023/04/25 10:53:55;;;;;;;2.10;1.23;;;;;;;;;;5044401;28;20028;-43
2023/04/25 10:56:21;;;;;;;3.55;1.52;;;;;;;;;;5041380;28;20048;-42
2023/04/25 10:58:48;;;;;;;5.15;1.70;;;;;;;;;;5043410;28;20465;-42
2023/04/25 11:01:14;;;;;;;4.35;1.48;;;;;;;;;;5041838;28;20045;-44
2023/04/25 11:03:44;;;;;;;6.97;1.50;;;;;;;;;;5042968;28;20029;-43
2023/04/25 11:06:29;;;;;;;5.32;1.48;;;;;;;;;;5039093;28;20051;-42
2023/04/25 11:08:55;;;;;;;3.20;1.50;;;;;;;;;;5041366;28;20025;-43
2023/04/25 11:11:21;;;;;;;3.28;1.30;;;;;;;;;;5032341;28;20124;-44
2023/04/25 11:13:50;;;;;;;4.97;1.13;;;;;;;;;;5026966;28;20084;-43
2023/04/25 11:16:16;;;;;;;2.80;1.27;;;;;;;;;;5025315;28;20038;-42
2023/04/25 11:18:43;;;;;;;6.78;1.15;;;;;;;;;;5021568;28;20458;-42
2023/04/25 11:21:08;;;;;;;1.83;1.45;;;;;;;;;;5023414;28;20041;-43
2023/04/25 11:23:34;;;;;;;2.63;1.08;;;;;;;;;;5024745;28;20112;-42
2023/04/25 11:26:01;;;;;;;5.13;1.58;;;;;;;;;;5030845;28;20563;-48
2023/04/25 11:28:26;;;;;;;2.40;1.30;;;;;;;;;;5045827;28;20029;-43
2023/04/25 11:30:52;;;;;;;2.72;1.23;;;;;;;;;;5042144;28;20037;-44
2023/04/25 11:33:22;;;;;;;3.42;1.02;;;;;;;;;;5043449;28;20098;-44
2023/04/25 11:35:48;;;;;;;0.90;0.90;;;;;;;;;;5042729;28;20037;-46
2023/04/25 11:38:13;;;;;;;4.65;1.30;;;;;;;;;;5042211;28;20078;-46
2023/04/25 11:40:40;;;;;;;1.30;1.10;;;;;;;;;;5042968;28;20504;-46
2023/04/25 11:43:06;;;;;;;2.22;1.10;;;;;;;;;;5044752;28;20029;-42
2023/04/25 11:45:31;;;;;;;2.28;1.35;;;;;;;;;;5044212;28;20422;-50
2023/04/25 11:47:57;;;;;;;1.67;1.15;;;;;;;;;;5043049;28;20025;-43
2023/04/25 11:50:22;;;;;;;1.13;1.05;;;;;;;;;;5044238;28;20025;-43
2023/04/25 11:52:48;;;;;;;3.50;1.08;;;;;;;;;;5043598;28;20030;-42
2023/04/25 11:55:19;;;;;;;4.22;1.25;;;;;;;;;;5043762;28;20059;-44
2023/04/25 11:57:47;;;;;;;2.78;1.30;;;;;;;;;;5044010;28;20038;-43
2023/04/25 12:00:16;;;;;;;6.32;1.60;;;;;;;;;;5040870;28;20371;-43
2023/04/25 12:02:43;;;;;;;3.88;1.20;;;;;;;;;;5043194;28;20111;-42
2023/04/25 12:05:10;;;;;;;2.88;1.05;;;;;;;;;;5040331;28;20584;-43
2023/04/25 12:07:36;;;;;;;2.55;1.17;;;;;;;;;;5041893;28;20032;-46
2023/04/25 12:10:10;;;;;;;2.97;1.63;;;;;;;;;;5045909;28;20108;-42
2023/04/25 12:12:36;;;;;;;3.47;1.40;;;;;;;;;;5026041;28;20092;-45
2023/04/25 12:15:10;;;;;;;1.73;1.20;;;;;;;;;;5029092;28;20625;-47
2023/04/25 12:17:37;;;;;;;2.70;1.67;;;;;;;;;;5023208;28;20125;-47
2023/04/25 12:20:09;;;;;;;2.53;0.93;;;;;;;;;;5025815;28;20562;-45
2023/04/25 12:22:36;;;;;;;5.68;1.30;;;;;;;;;;5027811;28;20129;-45
2023/04/25 12:25:03;;;;;;;5.15;1.30;;;;;;;;;;5027182;28;20039;-49
2023/04/25 12:27:31;;;;;;;4.45;1.33;;;;;;;;;;5025209;28;20120;-46
2023/04/25 12:29:57;;;;;;;2.53;1.48;;;;;;;;;;5028843;28;20025;-50
2023/04/25 12:32:23;;;;;;;4.63;1.30;;;;;;;;;;5023705;28;20041;-42
2023/04/25 12:34:48;;;;;;;2.97;1.15;;;;;;;;;;5026213;28;20442;-46
2023/04/25 12:37:14;;;;;;;8.63;1.25;;;;;;;;;;5043150;28;20076;-44
2023/04/25 12:39:39;;;;;;;3.10;1.27;;;;;;;;;;5047358;28;20033;-48
2023/04/25 12:42:07;;;;;;;2.60;1.48;;;;;;;;;;5045688;28;20080;-43
2023/04/25 12:44:33;;;;;;;5.28;1.55;;;;;;;;;;5042899;28;20037;-43
2023/04/25 12:46:59;;;;;;;2.10;1.50;;;;;;;;;;5046817;28;20774;-44
2023/04/25 12:49:25;;;;;;;3.10;1.27;;;;;;;;;;5046725;28;20024;-50
2023/04/25 12:51:51;;;;;;;1.38;1.20;;;;;;;;;;5044993;28;20089;-43
2023/04/25 12:54:17;;;;;;;4.97;1.27;;;;;;;;;;5047301;28;20036;-46
2023/04/25 12:56:42;;;;;;;1.60;1.00;;;;;;;;;;5044320;28;20029;-42
2023/04/25 12:59:09;;;;;;;6.03;1.90;;;;;;;;;;5043405;28;20047;-43
2023/04/25 13:01:34;;;;;;;1.70;1.55;;;;;;;;;;5046512;28;20097;-44
2023/04/25 13:04:00;;;;;;;2.00;1.42;;;;;;;;;;5046109;28;20021;-43
2023/04/25 13:06:26;;;;;;;1.30;1.20;;;;;;;;;;5044527;28;20048;-43
2023/04/25 13:08:51;;;;;;;4.30;1.50;;;;;;;;;;5044869;28;20562;-43
2023/04/25 13:11:17;;;;;;;1.45;1.35;;;;;;;;;;5044357;28;20120;-43
2023/04/25 13:13:43;;;;;;;7.35;1.38;;;;;;;;;;5048012;28;20033;-42
2023/04/25 13:16:09;;;;;;;1.75;1.20;;;;;;;;;;5044497;28;20402;-42
2023/04/25 13:18:35;;;;;;;3.65;1.48;;;;;;;;;;5047022;28;20024;-43
2023/04/25 13:21:00;;;;;;;3.78;1.30;;;;;;;;;;5042188;28;20038;-44
2023/04/25 13:23:28;;;;;;;3.05;1.30;;;;;;;;;;5047117;28;20040;-44
2023/04/25 13:25:55;;;;;;;1.75;1.20;;;;;;;;;;5046409;28;20033;-43
2023/04/25 13:28:20;;;;;;;3.22;1.33;;;;;;;;;;5046021;28;20116;-42
2023/04/25 13:30:47;;;;;;;4.13;1.42;;;;;;;;;;5042393;28;20186;-43
2023/04/25 13:33:13;;;;;;;2.83;1.23;;;;;;;;;;5045158;28;20155;-43
2023/04/25 13:35:39;;;;;;;3.00;1.40;;;;;;;;;;5044960;28;20077;-42
2023/04/25 13:38:05;;;;;;;2.05;1.35;;;;;;;;;;5045488;28;20518;-48
2023/04/25 13:40:31;;;;;;;2.10;1.40;;;;;;;;;;5046414;28;20068;-42
2023/04/25 13:42:57;;;;;;;13.35;2.92;;;;;;;;;;5045713;28;20021;-43
2023/04/25 13:45:22;;;;;;;4.05;1.40;;;;;;;;;;5044419;28;20526;-44
2023/04/25 13:47:48;;;;;;;4.53;1.25;;;;;;;;;;5042373;28;20025;-44
2023/04/25 13:50:14;;;;;;;4.45;1.20;;;;;;;;;;5042166;28;20028;-44
2023/04/25 13:52:40;;;;;;;1.83;1.52;;;;;;;;;;5047110;28;20025;-47
2023/04/25 13:55:07;;;;;;;4.63;1.48;;;;;;;;;;5043673;28;20040;-43
2023/04/25 13:57:33;;;;;;;1.40;1.30;;;;;;;;;;5044676;28;20034;-43
2023/04/25 13:59:59;;;;;;;1.50;1.20;;;;;;;;;;5045667;28;20390;-44
2023/04/25 14:02:25;;;;;;;2.08;1.33;;;;;;;;;;5044001;28;20041;-43
2023/04/25 14:04:51;;;;;;;4.10;1.90;;;;;;;;;;5042233;28;20044;-43
2023/04/25 14:07:16;;;;;;;1.30;1.17;;;;;;;;;;5042042;28;20033;-45
2023/04/25 14:09:42;;;;;;;5.72;1.73;;;;;;;;;;5042482;28;20062;-44
2023/04/25 14:12:07;;;;;;;3.33;1.55;;;;;;;;;;5045031;28;20036;-44
2023/04/25 14:14:33;;;;;;;6.43;2.00;;;;;;;;;;5040473;28;20159;-46
2023/04/25 14:16:58;;;;;;;3.90;1.73;;;;;;;;;;5043589;28;20033;-44
2023/04/25 14:19:24;;;;;;;4.25;1.50;;;;;;;;;;5041564;28;20047;-43
2023/04/25 14:21:49;;;;;;;2.60;1.60;;;;;;;;;;5043532;28;20048;-44
2023/04/25 14:24:15;;;;;;;4.15;1.50;;;;;;;;;;5042086;28;20036;-44
2023/04/25 14:26:42;;;;;;;2.28;1.58;;;;;;;;;;5046236;28;20037;-43
2023/04/25 14:29:08;;;;;;;1.70;1.30;;;;;;;;;;5040317;28;20024;-50
2023/04/25 14:31:34;;;;;;;5.50;1.58;;;;;;;;;;5037129;28;20041;-43
2023/04/25 14:34:00;;;;;;;2.92;1.40;;;;;;;;;;5040998;28;20448;-47
2023/04/25 14:36:26;;;;;;;2.08;1.65;;;;;;;;;;5043256;28;20120;-43
2023/04/25 14:38:52;;;;;;;2.65;1.38;;;;;;;;;;5042513;28;20056;-44